x

South Georgian Bay (45143) Wave Buoy

2:00am - Thu 21st Aug 2014 All times are CDT. -5 hours from GMT.

  • Sig Wave height 0.3ft
  • Peak Period 2s
  • Wind
    9mph
  • Sea Temp 62°f
  • Air Temp 63°f
  • Sea Pressure 1012.7mb
  • South Georgian Bay
  • South Georgian Bay

More Historic Weather Station data

Upgrade to MSW Pro to gain access to the past 30 days of data for over 8000 Wavebouys and Weather Stations around the globe.

Join Pro

Comparision Forecast

View Surf forecast
   
Thu 08/21 2:00am 0.3ft 2s 9
mph
1012.7mb 62f 63f
1:00am 0.7ft 2s 4 7 mph 1012.7mb 62f 63f
12:00am 0.7ft 2s 7
mph
1013mb 62f 64f
Wed 08/20 11:00pm 0.7ft 2s 9 11 mph 1012.9mb 62f 64f
10:00pm 0.3ft 2s 9
mph
1012.7mb 62f 65f
9:00pm 0.3ft 2s 4
mph
1012.6mb 62f 63f
8:00pm 0.3ft 2s 4
mph
1012.3mb 62f 63f
7:00pm 0.3ft 2s 4
mph
1012.3mb 62f 64f
6:00pm 0.3ft 2s 4
mph
1012.2mb 62f 64f
5:00pm 0.3ft 2s 7 9 mph 1012.1mb 62f 64f
4:00pm 0.7ft 2s 9 13 mph 1012.2mb 62f 64f
3:00pm 0.7ft 3s 7
mph
1011.8mb 62f 64f
2:00pm 1ft 3s 9 18 mph 1011.5mb 62f 64f
1:00pm 1ft 3s 9
mph
1011.7mb 62f 64f
12:00pm 1.3ft 3s 7 9 mph 1011.7mb 62f 64f
11:00am 1.3ft 3s 9 11 mph 1011.4mb 62f 64f
10:00am 1.6ft 3s 11 13 mph 1011.3mb 62f 63f
9:00am 1.6ft 3s 13 16 mph 1011.1mb 62f 62f
8:00am 1.6ft 4s 13 16 mph 1010.8mb 62f 62f
7:00am 1.6ft 4s 13 18 mph 1010.7mb 62f 63f
6:00am 2ft 4s 13 18 mph 1010.5mb 62f 63f
5:00am 2.5ft 4s 16 18 mph 1010.3mb 62f 63f
4:00am 2.5ft 4s 16 20 mph 1009.7mb 62f 63f
3:00am 2.5ft 4s 16 18 mph 1009.5mb 62f 62f
2:00am 2ft 4s 16 18 mph 1009.4mb 62f 62f
1:00am 2.5ft 4s 18 20 mph 1009.3mb 62f 62f
12:00am 3ft 4s 18 20 mph 1009.4mb 62f 62f
Tue 08/19 11:00pm 3.5ft 4s 18 22 mph 1009.2mb 62f 64f
10:00pm 3.5ft 4s 22 27 mph 1008.6mb 62f 65f
9:00pm 3ft 4s 22 27 mph 1008.4mb 63f 65f
8:00pm 3ft 4s 20 25 mph 1008.3mb 63f 66f
7:00pm 3ft 4s 20 25 mph 1008.5mb 63f 67f
6:00pm 2.5ft 4s 20 22 mph 1008.4mb 63f 67f
5:00pm 2ft 3s 16 18 mph 1008.5mb 63f 67f
4:00pm 1.6ft 3s 16 18 mph 1008.8mb 63f 67f
3:00pm 1.6ft 3s 16 18 mph 1008.8mb 63f 67f
2:00pm 1.6ft 3s 13 16 mph 1009.4mb 63f 66f
1:00pm 1.6ft 4s 13 16 mph 1009.9mb 63f 65f
12:00pm 2ft 4s 13 16 mph 1010.3mb 63f 64f
11:00am 2.5ft 4s 16 18 mph 1010.9mb 63f 63f
10:00am 2ft 4s 16 18 mph 1011.2mb 63f 63f
9:00am 1.6ft 4s 16 18 mph 1011.2mb 63f 63f
8:00am 1.3ft 3s 13 16 mph 1011mb 63f 61f
7:00am 1.3ft 3s 11
mph
1011.3mb 63f 61f
6:00am 1ft 2s 13 16 mph 1011.1mb 63f 62f
5:00am 0.7ft 2s 11
mph
1011mb 63f 62f
4:00am 0.7ft 2s 11 13 mph 1010.7mb 63f 62f
3:00am 0.7ft 2s 9
mph
1010.9mb 63f 62f
2:00am 0.7ft 2s 9 11 mph 1010.9mb 63f 62f
1:00am 0.3ft 2s 11
mph
1011.1mb 63f 63f
12:00am 0.3ft 2s 9 11 mph 1011.6mb 63f 62f
Mon 08/18 11:00pm 0.3ft 2s 9
mph
1012.1mb 64f 63f
10:00pm 0.3ft 2s 7
mph
1012.1mb 64f 63f
9:00pm 0.3ft 2s 7 9 mph 1012.3mb 64f 62f
8:00pm 0.3ft 2s 4 7 mph 1012.6mb 64f 62f
7:00pm 0.3ft 2s 7 9 mph 1012.3mb 64f 62f
6:00pm 0.3ft 2s 4 7 mph 1012.4mb 64f 63f
5:00pm 0.3ft 2s 4 7 mph 1012.9mb 65f 63f
4:00pm 0.3ft 2s 4 7 mph 1013.3mb 65f 62f
3:00pm 0.3ft 2s 2 4 mph 1013.7mb 66f 61f
2:00pm 0.3ft 2s 2
mph
1014.2mb 65f 60f
1:00pm 0.3ft 2s 2 4 mph 1014.7mb 64f 60f
12:00pm 0.7ft 2s 7 9 mph 1014.8mb 64f 59f
11:00am 0.7ft 2s 7 9 mph 1015.5mb 63f 58f
10:00am 0.7ft 3s 4 7 mph 1016.2mb 63f 59f
9:00am 0.7ft 3s 7 9 mph 1016.3mb 63f 58f
8:00am 1ft 3s 7 9 mph 1016.1mb 62f 58f
7:00am 1ft 3s 7 9 mph 1016.3mb 62f 58f
6:00am 1.3ft 3s 7 9 mph 1016.4mb 62f 58f
5:00am 1.3ft 3s 9 11 mph 1015.9mb 62f 58f
4:00am 1.3ft 3s 11 13 mph 1015.5mb 62f 58f
3:00am 1.3ft 3s 13 16 mph 1015.5mb 62f 59f
2:00am 1ft 2s 13 16 mph 1015.7mb 62f 59f
1:00am 0.7ft 2s 13 16 mph 1015.7mb 62f 60f
12:00am 1ft 3s 7
mph
1016.2mb 62f 61f
Sun 08/17 11:00pm 1ft 3s 7
mph
1016.2mb 62f 62f
10:00pm 0.7ft 3s 9 11 mph 1016.4mb 63f 62f
9:00pm 1ft 3s 9
mph
1016.4mb 63f 62f
8:00pm 1ft 3s 7 9 mph 1016.4mb 63f 62f
7:00pm 1ft 3s 9
mph
1016mb 63f 62f
6:00pm 1.3ft 3s 11 13 mph 1016mb 63f 62f
5:00pm 1.3ft 3s 11 13 mph 1016.3mb 63f 62f
4:00pm 1.3ft 3s 11
mph
1016.3mb 63f 61f
3:00pm 1ft 4s 9 11 mph 1016.5mb 63f 62f
2:00pm 1.3ft 4s 9 11 mph 1016.6mb 63f 61f
1:00pm 1.3ft 4s 9 11 mph 1016.7mb 63f 61f
12:00pm 1.6ft 4s 9
mph
1017mb 63f 60f
11:00am 1.6ft 4s 4 7 mph 1017.1mb 62f 60f
10:00am 2ft 4s 7 9 mph 1016.8mb 62f 60f
9:00am 2ft 4s 13 16 mph 1016.3mb 62f 59f